createdAt,value
2023-02-05T00:02:03.003Z,9.40
2023-02-05T00:17:04.540Z,5.83
2023-02-05T00:32:06.011Z,8.03
2023-02-05T00:47:07.480Z,7.10
2023-02-05T01:02:09.035Z,5.20
2023-02-05T01:17:10.577Z,4.20
2023-02-05T01:32:12.065Z,7.07
2023-02-05T01:47:13.573Z,7.10
2023-02-05T02:02:15.050Z,6.47
2023-02-05T02:17:16.524Z,5.20
2023-02-05T02:32:17.989Z,7.50
2023-02-05T02:47:19.454Z,4.30
2023-02-05T03:02:20.918Z,6.47
2023-02-05T03:17:22.386Z,5.73
2023-02-05T03:32:23.853Z,4.83
2023-02-05T03:47:25.328Z,3.70
2023-02-05T04:02:26.874Z,4.83
2023-02-05T04:17:28.383Z,5.10
2023-02-05T04:32:29.860Z,4.20
2023-02-05T04:47:31.386Z,4.53
2023-02-05T05:02:32.866Z,3.47
2023-02-05T05:17:34.466Z,4.70
2023-02-05T05:32:35.940Z,4.57
2023-02-05T05:47:37.412Z,3.87
2023-02-05T06:02:38.936Z,3.83
2023-02-05T06:17:40.441Z,4.63
2023-02-05T06:32:41.900Z,3.60
2023-02-05T06:47:43.348Z,5.10
2023-02-05T07:02:44.908Z,3.83
2023-02-05T07:17:46.415Z,3.10
2023-02-05T07:32:47.863Z,3.77
2023-02-05T07:47:49.324Z,3.17
2023-02-05T08:02:50.783Z,2.43
2023-02-05T08:17:52.251Z,3.70
2023-02-05T08:32:53.733Z,5.23
2023-02-05T08:47:55.219Z,2.50
2023-02-05T09:02:56.700Z,5.13
2023-02-05T09:17:58.171Z,2.67
2023-02-05T09:32:59.647Z,3.13
2023-02-05T09:48:01.105Z,3.30
2023-02-05T10:03:02.571Z,2.77
2023-02-05T10:18:04.046Z,3.63
2023-02-05T10:33:05.506Z,3.47
2023-02-05T10:48:06.989Z,10.07
2023-02-05T11:03:08.474Z,4.23
2023-02-05T11:18:15.066Z,3.50
2023-02-05T11:49:03.760Z,4.63
2023-02-05T12:04:05.247Z,4.43
2023-02-05T12:19:06.712Z,5.73
2023-02-05T12:34:08.218Z,6.23
2023-02-05T12:49:09.698Z,7.30
2023-02-05T13:04:11.205Z,5.90
2023-02-05T14:20:55.855Z,5.17
2023-02-05T14:35:57.323Z,5.53
2023-02-05T14:50:58.788Z,7.30
2023-02-05T15:06:00.277Z,7.67
2023-02-05T15:21:01.749Z,5.50
2023-02-05T15:36:03.238Z,5.77
2023-02-05T15:51:04.703Z,6.03
2023-02-05T16:06:06.155Z,8.53
2023-02-05T16:21:07.602Z,7.27
2023-02-05T16:36:09.070Z,7.07
2023-02-05T16:51:10.531Z,7.73
2023-02-05T17:06:11.988Z,5.27
2023-02-05T17:21:13.522Z,6.07
2023-02-05T17:36:15.012Z,7.23
2023-02-05T17:51:16.463Z,6.30
2023-02-05T18:06:17.945Z,5.30
2023-02-05T18:21:19.422Z,4.07
2023-02-05T18:36:20.893Z,7.67
2023-02-05T18:51:22.364Z,12.17
2023-02-05T19:06:23.837Z,13.00
2023-02-05T19:21:25.291Z,11.00
2023-02-05T19:36:26.764Z,8.47
2023-02-05T19:51:28.237Z,7.90
2023-02-05T20:06:29.746Z,10.37
2023-02-05T20:21:31.226Z,7.33
2023-02-05T20:36:32.721Z,9.73
2023-02-05T20:51:34.187Z,6.53
2023-02-05T21:06:35.659Z,6.10
2023-02-05T21:21:37.121Z,5.93
2023-02-05T21:36:38.590Z,6.70
2023-02-05T21:51:40.091Z,6.23
2023-02-05T22:06:41.592Z,7.93
2023-02-05T22:21:43.058Z,5.73
2023-02-05T22:36:44.559Z,4.83
2023-02-05T22:51:46.039Z,5.50
2023-02-05T23:06:47.520Z,6.83
2023-02-05T23:21:48.995Z,5.00
2023-02-05T23:36:50.486Z,4.60
2023-02-05T23:51:51.991Z,6.73
